sensor_id;sensor_type;location;lat;lon;timestamp;P1;durP1;ratioP1;P2;durP2;ratioP2
48014;SDS011;33780;51.034;7.120;2023-09-07T00:00:31;3.40;;;1.50;;
48014;SDS011;33780;51.034;7.120;2023-09-07T00:02:56;3.83;;;1.50;;
48014;SDS011;33780;51.034;7.120;2023-09-07T00:05:21;3.65;;;1.10;;
48014;SDS011;33780;51.034;7.120;2023-09-07T00:07:47;3.40;;;1.60;;
48014;SDS011;33780;51.034;7.120;2023-09-07T00:10:12;2.47;;;1.23;;
48014;SDS011;33780;51.034;7.120;2023-09-07T00:12:38;2.90;;;1.33;;
48014;SDS011;33780;51.034;7.120;2023-09-07T00:15:04;4.20;;;1.60;;
48014;SDS011;33780;51.034;7.120;2023-09-07T00:17:31;2.83;;;1.45;;
48014;SDS011;33780;51.034;7.120;2023-09-07T00:19:57;5.25;;;1.50;;
48014;SDS011;33780;51.034;7.120;2023-09-07T00:22:23;2.83;;;1.42;;
48014;SDS011;33780;51.034;7.120;2023-09-07T00:24:50;2.20;;;1.23;;
48014;SDS011;33780;51.034;7.120;2023-09-07T00:27:15;2.65;;;1.30;;
48014;SDS011;33780;51.034;7.120;2023-09-07T00:29:41;2.33;;;1.27;;
48014;SDS011;33780;51.034;7.120;2023-09-07T00:32:06;3.83;;;1.48;;
48014;SDS011;33780;51.034;7.120;2023-09-07T00:34:31;2.35;;;1.20;;
48014;SDS011;33780;51.034;7.120;2023-09-07T00:36:57;2.58;;;1.30;;
48014;SDS011;33780;51.034;7.120;2023-09-07T00:41:57;2.65;;;1.40;;
48014;SDS011;33780;51.034;7.120;2023-09-07T00:44:23;2.70;;;1.50;;
48014;SDS011;33780;51.034;7.120;2023-09-07T00:46:48;2.63;;;1.40;;
48014;SDS011;33780;51.034;7.120;2023-09-07T00:49:13;2.92;;;1.60;;
48014;SDS011;33780;51.034;7.120;2023-09-07T00:51:39;3.83;;;1.20;;
48014;SDS011;33780;51.034;7.120;2023-09-07T00:54:04;4.10;;;1.40;;
48014;SDS011;33780;51.034;7.120;2023-09-07T00:56:30;2.50;;;1.55;;
48014;SDS011;33780;51.034;7.120;2023-09-07T00:58:55;3.80;;;1.50;;
48014;SDS011;33780;51.034;7.120;2023-09-07T01:01:22;3.25;;;1.35;;
48014;SDS011;33780;51.034;7.120;2023-09-07T01:03:48;3.60;;;1.30;;
48014;SDS011;33780;51.034;7.120;2023-09-07T01:06:15;2.22;;;1.20;;
48014;SDS011;33780;51.034;7.120;2023-09-07T01:08:46;2.45;;;1.08;;
48014;SDS011;33780;51.034;7.120;2023-09-07T01:11:14;3.28;;;1.40;;
48014;SDS011;33780;51.034;7.120;2023-09-07T01:13:40;5.25;;;1.67;;
48014;SDS011;33780;51.034;7.120;2023-09-07T01:16:07;2.55;;;1.40;;
48014;SDS011;33780;51.034;7.120;2023-09-07T01:18:32;2.97;;;1.38;;
48014;SDS011;33780;51.034;7.120;2023-09-07T01:20:58;3.70;;;1.63;;
48014;SDS011;33780;51.034;7.120;2023-09-07T01:23:25;4.32;;;1.35;;
48014;SDS011;33780;51.034;7.120;2023-09-07T01:25:51;2.13;;;1.33;;
48014;SDS011;33780;51.034;7.120;2023-09-07T01:28:18;2.80;;;1.30;;
48014;SDS011;33780;51.034;7.120;2023-09-07T01:30:45;4.13;;;1.35;;
48014;SDS011;33780;51.034;7.120;2023-09-07T01:33:11;2.38;;;1.40;;
48014;SDS011;33780;51.034;7.120;2023-09-07T01:35:37;2.55;;;1.17;;
48014;SDS011;33780;51.034;7.120;2023-09-07T01:38:04;3.25;;;1.55;;
48014;SDS011;33780;51.034;7.120;2023-09-07T01:40:29;2.50;;;1.10;;
48014;SDS011;33780;51.034;7.120;2023-09-07T01:42:54;3.92;;;1.40;;
48014;SDS011;33780;51.034;7.120;2023-09-07T01:45:19;3.10;;;1.20;;
48014;SDS011;33780;51.034;7.120;2023-09-07T01:47:45;3.75;;;1.30;;
48014;SDS011;33780;51.034;7.120;2023-09-07T01:50:10;4.03;;;1.63;;
48014;SDS011;33780;51.034;7.120;2023-09-07T01:52:36;4.97;;;1.40;;
48014;SDS011;33780;51.034;7.120;2023-09-07T01:55:01;2.13;;;1.38;;
48014;SDS011;33780;51.034;7.120;2023-09-07T01:57:26;2.88;;;1.23;;
48014;SDS011;33780;51.034;7.120;2023-09-07T01:59:52;3.38;;;1.65;;
48014;SDS011;33780;51.034;7.120;2023-09-07T02:02:17;1.83;;;1.25;;
48014;SDS011;33780;51.034;7.120;2023-09-07T02:04:42;5.00;;;1.35;;
48014;SDS011;33780;51.034;7.120;2023-09-07T02:07:10;5.82;;;1.40;;
48014;SDS011;33780;51.034;7.120;2023-09-07T02:09:36;3.72;;;1.58;;
48014;SDS011;33780;51.034;7.120;2023-09-07T02:12:01;2.55;;;1.20;;
48014;SDS011;33780;51.034;7.120;2023-09-07T02:14:29;2.63;;;1.42;;
48014;SDS011;33780;51.034;7.120;2023-09-07T02:16:54;3.42;;;1.63;;
48014;SDS011;33780;51.034;7.120;2023-09-07T02:19:19;2.72;;;1.08;;
48014;SDS011;33780;51.034;7.120;2023-09-07T02:21:47;2.80;;;1.50;;
48014;SDS011;33780;51.034;7.120;2023-09-07T02:24:13;3.38;;;1.60;;
48014;SDS011;33780;51.034;7.120;2023-09-07T02:26:38;2.53;;;1.27;;
48014;SDS011;33780;51.034;7.120;2023-09-07T02:29:08;2.90;;;1.40;;
48014;SDS011;33780;51.034;7.120;2023-09-07T02:31:34;2.85;;;1.40;;
48014;SDS011;33780;51.034;7.120;2023-09-07T02:33:59;3.30;;;1.52;;
48014;SDS011;33780;51.034;7.120;2023-09-07T02:36:24;3.00;;;1.30;;
48014;SDS011;33780;51.034;7.120;2023-09-07T02:38:49;2.88;;;1.52;;
48014;SDS011;33780;51.034;7.120;2023-09-07T02:41:15;3.58;;;1.38;;
48014;SDS011;33780;51.034;7.120;2023-09-07T02:43:40;4.10;;;1.40;;
48014;SDS011;33780;51.034;7.120;2023-09-07T02:46:05;2.47;;;1.25;;
48014;SDS011;33780;51.034;7.120;2023-09-07T02:48:30;2.15;;;1.30;;
48014;SDS011;33780;51.034;7.120;2023-09-07T02:50:56;2.50;;;1.30;;
48014;SDS011;33780;51.034;7.120;2023-09-07T02:53:23;3.70;;;1.50;;
48014;SDS011;33780;51.034;7.120;2023-09-07T02:55:49;3.90;;;1.38;;
48014;SDS011;33780;51.034;7.120;2023-09-07T02:58:14;2.75;;;1.40;;
48014;SDS011;33780;51.034;7.120;2023-09-07T03:00:43;3.00;;;1.33;;
48014;SDS011;33780;51.034;7.120;2023-09-07T03:03:09;3.22;;;1.30;;
48014;SDS011;33780;51.034;7.120;2023-09-07T03:05:35;2.72;;;1.33;;
48014;SDS011;33780;51.034;7.120;2023-09-07T03:08:00;3.78;;;1.23;;
48014;SDS011;33780;51.034;7.120;2023-09-07T03:10:26;2.13;;;1.17;;
48014;SDS011;33780;51.034;7.120;2023-09-07T03:12:52;2.90;;;1.40;;
48014;SDS011;33780;51.034;7.120;2023-09-07T03:15:19;2.28;;;1.38;;
48014;SDS011;33780;51.034;7.120;2023-09-07T03:17:45;4.55;;;1.30;;
48014;SDS011;33780;51.034;7.120;2023-09-07T03:20:10;2.95;;;1.50;;
48014;SDS011;33780;51.034;7.120;2023-09-07T03:22:40;4.53;;;1.50;;
48014;SDS011;33780;51.034;7.120;2023-09-07T03:25:06;2.45;;;1.40;;
48014;SDS011;33780;51.034;7.120;2023-09-07T03:27:33;6.35;;;1.48;;
48014;SDS011;33780;51.034;7.120;2023-09-07T03:29:58;3.08;;;1.52;;
48014;SDS011;33780;51.034;7.120;2023-09-07T03:32:23;3.15;;;1.40;;
48014;SDS011;33780;51.034;7.120;2023-09-07T03:34:48;2.90;;;1.40;;
48014;SDS011;33780;51.034;7.120;2023-09-07T03:37:14;3.97;;;1.63;;
48014;SDS011;33780;51.034;7.120;2023-09-07T03:39:39;3.70;;;1.33;;
48014;SDS011;33780;51.034;7.120;2023-09-07T03:42:04;3.10;;;1.40;;
48014;SDS011;33780;51.034;7.120;2023-09-07T03:44:30;4.07;;;1.42;;
48014;SDS011;33780;51.034;7.120;2023-09-07T03:46:55;3.90;;;1.67;;
48014;SDS011;33780;51.034;7.120;2023-09-07T03:49:20;4.72;;;1.52;;
48014;SDS011;33780;51.034;7.120;2023-09-07T03:51:45;2.30;;;1.33;;
48014;SDS011;33780;51.034;7.120;2023-09-07T03:54:11;3.42;;;1.40;;
48014;SDS011;33780;51.034;7.120;2023-09-07T03:56:36;2.42;;;1.33;;
48014;SDS011;33780;51.034;7.120;2023-09-07T03:59:01;4.28;;;1.50;;
48014;SDS011;33780;51.034;7.120;2023-09-07T04:01:26;3.33;;;1.38;;
48014;SDS011;33780;51.034;7.120;2023-09-07T04:03:52;2.67;;;1.40;;
48014;SDS011;33780;51.034;7.120;2023-09-07T04:06:17;5.03;;;1.35;;
48014;SDS011;33780;51.034;7.120;2023-09-07T04:08:43;4.28;;;1.67;;
48014;SDS011;33780;51.034;7.120;2023-09-07T04:11:08;2.50;;;1.20;;
48014;SDS011;33780;51.034;7.120;2023-09-07T04:13:35;5.70;;;1.30;;
48014;SDS011;33780;51.034;7.120;2023-09-07T04:16:00;4.05;;;1.50;;
48014;SDS011;33780;51.034;7.120;2023-09-07T04:18:25;4.53;;;1.35;;
48014;SDS011;33780;51.034;7.120;2023-09-07T04:20:51;4.25;;;1.15;;
48014;SDS011;33780;51.034;7.120;2023-09-07T04:23:16;3.15;;;1.38;;
48014;SDS011;33780;51.034;7.120;2023-09-07T04:25:41;2.67;;;1.27;;
48014;SDS011;33780;51.034;7.120;2023-09-07T04:28:07;2.15;;;1.30;;
48014;SDS011;33780;51.034;7.120;2023-09-07T04:30:37;3.15;;;1.42;;
48014;SDS011;33780;51.034;7.120;2023-09-07T04:33:03;5.88;;;1.58;;
48014;SDS011;33780;51.034;7.120;2023-09-07T04:35:29;3.17;;;1.33;;
48014;SDS011;33780;51.034;7.120;2023-09-07T04:37:57;2.45;;;1.40;;
48014;SDS011;33780;51.034;7.120;2023-09-07T04:40:23;3.40;;;1.50;;
48014;SDS011;33780;51.034;7.120;2023-09-07T04:42:49;2.97;;;1.17;;
48014;SDS011;33780;51.034;7.120;2023-09-07T04:45:15;4.50;;;1.60;;
48014;SDS011;33780;51.034;7.120;2023-09-07T04:47:40;2.70;;;1.40;;
48014;SDS011;33780;51.034;7.120;2023-09-07T04:50:06;2.95;;;1.40;;
48014;SDS011;33780;51.034;7.120;2023-09-07T04:52:31;2.92;;;1.48;;
48014;SDS011;33780;51.034;7.120;2023-09-07T04:54:57;2.65;;;1.30;;
48014;SDS011;33780;51.034;7.120;2023-09-07T04:57:22;2.95;;;1.63;;
48014;SDS011;33780;51.034;7.120;2023-09-07T04:59:48;2.47;;;1.30;;
48014;SDS011;33780;51.034;7.120;2023-09-07T05:02:13;2.60;;;1.33;;
48014;SDS011;33780;51.034;7.120;2023-09-07T05:04:38;3.30;;;1.13;;
48014;SDS011;33780;51.034;7.120;2023-09-07T05:07:03;3.15;;;1.52;;
48014;SDS011;33780;51.034;7.120;2023-09-07T05:09:29;2.55;;;1.35;;
48014;SDS011;33780;51.034;7.120;2023-09-07T05:11:55;2.45;;;1.13;;
48014;SDS011;33780;51.034;7.120;2023-09-07T05:14:21;3.45;;;1.30;;
48014;SDS011;33780;51.034;7.120;2023-09-07T05:16:48;2.78;;;1.38;;
48014;SDS011;33780;51.034;7.120;2023-09-07T05:19:13;2.50;;;1.27;;
48014;SDS011;33780;51.034;7.120;2023-09-07T05:21:39;2.92;;;1.40;;
48014;SDS011;33780;51.034;7.120;2023-09-07T05:24:04;2.88;;;1.58;;
48014;SDS011;33780;51.034;7.120;2023-09-07T05:26:30;3.15;;;1.52;;
48014;SDS011;33780;51.034;7.120;2023-09-07T05:28:55;2.65;;;1.55;;
48014;SDS011;33780;51.034;7.120;2023-09-07T05:31:20;3.88;;;1.30;;
48014;SDS011;33780;51.034;7.120;2023-09-07T05:33:45;2.97;;;1.55;;
48014;SDS011;33780;51.034;7.120;2023-09-07T05:36:11;3.17;;;1.40;;
48014;SDS011;33780;51.034;7.120;2023-09-07T05:38:36;4.07;;;1.48;;
48014;SDS011;33780;51.034;7.120;2023-09-07T05:41:02;2.53;;;1.27;;
48014;SDS011;33780;51.034;7.120;2023-09-07T05:43:28;2.97;;;1.38;;
48014;SDS011;33780;51.034;7.120;2023-09-07T05:45:53;2.03;;;1.20;;
48014;SDS011;33780;51.034;7.120;2023-09-07T05:48:19;3.28;;;1.55;;
48014;SDS011;33780;51.034;7.120;2023-09-07T05:50:44;3.17;;;1.30;;
48014;SDS011;33780;51.034;7.120;2023-09-07T05:53:10;2.55;;;1.23;;
48014;SDS011;33780;51.034;7.120;2023-09-07T05:55:35;5.05;;;1.50;;
48014;SDS011;33780;51.034;7.120;2023-09-07T05:58:03;3.30;;;1.45;;
48014;SDS011;33780;51.034;7.120;2023-09-07T06:00:30;2.78;;;1.42;;
48014;SDS011;33780;51.034;7.120;2023-09-07T06:02:55;5.40;;;1.42;;
48014;SDS011;33780;51.034;7.120;2023-09-07T06:05:20;3.22;;;1.50;;
48014;SDS011;33780;51.034;7.120;2023-09-07T06:07:46;5.45;;;1.60;;
48014;SDS011;33780;51.034;7.120;2023-09-07T06:10:11;3.25;;;1.60;;
48014;SDS011;33780;51.034;7.120;2023-09-07T06:12:37;2.55;;;1.50;;
48014;SDS011;33780;51.034;7.120;2023-09-07T06:15:02;4.13;;;1.73;;
48014;SDS011;33780;51.034;7.120;2023-09-07T06:17:28;2.88;;;1.73;;
48014;SDS011;33780;51.034;7.120;2023-09-07T06:19:54;4.00;;;1.40;;
48014;SDS011;33780;51.034;7.120;2023-09-07T06:22:19;3.95;;;1.40;;
48014;SDS011;33780;51.034;7.120;2023-09-07T06:24:45;2.60;;;1.23;;
48014;SDS011;33780;51.034;7.120;2023-09-07T06:27:10;4.45;;;1.75;;
48014;SDS011;33780;51.034;7.120;2023-09-07T06:29:35;3.47;;;1.60;;
48014;SDS011;33780;51.034;7.120;2023-09-07T06:32:01;2.60;;;1.40;;
48014;SDS011;33780;51.034;7.120;2023-09-07T06:34:26;3.05;;;1.60;;
48014;SDS011;33780;51.034;7.120;2023-09-07T06:36:51;2.60;;;1.60;;
48014;SDS011;33780;51.034;7.120;2023-09-07T06:39:16;4.28;;;1.17;;
48014;SDS011;33780;51.034;7.120;2023-09-07T06:41:45;2.78;;;1.63;;
48014;SDS011;33780;51.034;7.120;2023-09-07T06:44:10;2.90;;;1.50;;
48014;SDS011;33780;51.034;7.120;2023-09-07T06:46:36;3.97;;;1.80;;
48014;SDS011;33780;51.034;7.120;2023-09-07T06:49:01;3.58;;;1.45;;
48014;SDS011;33780;51.034;7.120;2023-09-07T06:51:28;3.00;;;1.50;;
48014;SDS011;33780;51.034;7.120;2023-09-07T06:53:53;4.20;;;1.50;;
48014;SDS011;33780;51.034;7.120;2023-09-07T06:56:18;3.72;;;1.67;;
48014;SDS011;33780;51.034;7.120;2023-09-07T06:58:43;3.95;;;1.55;;
48014;SDS011;33780;51.034;7.120;2023-09-07T07:01:09;4.22;;;1.63;;
48014;SDS011;33780;51.034;7.120;2023-09-07T07:03:34;3.65;;;1.90;;
48014;SDS011;33780;51.034;7.120;2023-09-07T07:05:59;3.42;;;1.70;;
48014;SDS011;33780;51.034;7.120;2023-09-07T07:08:25;3.60;;;2.00;;
48014;SDS011;33780;51.034;7.120;2023-09-07T07:10:50;3.38;;;1.73;;
48014;SDS011;33780;51.034;7.120;2023-09-07T07:13:15;3.58;;;1.83;;
48014;SDS011;33780;51.034;7.120;2023-09-07T07:15:41;3.38;;;1.70;;
48014;SDS011;33780;51.034;7.120;2023-09-07T07:18:06;3.22;;;1.85;;
48014;SDS011;33780;51.034;7.120;2023-09-07T07:20:37;4.05;;;1.92;;
48014;SDS011;33780;51.034;7.120;2023-09-07T07:23:03;4.07;;;2.00;;
48014;SDS011;33780;51.034;7.120;2023-09-07T07:25:29;5.93;;;2.05;;
48014;SDS011;33780;51.034;7.120;2023-09-07T07:27:58;3.58;;;1.70;;
48014;SDS011;33780;51.034;7.120;2023-09-07T07:30:26;3.33;;;1.70;;
48014;SDS011;33780;51.034;7.120;2023-09-07T07:32:53;3.05;;;1.77;;
48014;SDS011;33780;51.034;7.120;2023-09-07T07:35:18;3.40;;;1.75;;
48014;SDS011;33780;51.034;7.120;2023-09-07T07:37:43;3.78;;;1.77;;
48014;SDS011;33780;51.034;7.120;2023-09-07T07:40:09;3.42;;;1.70;;
48014;SDS011;33780;51.034;7.120;2023-09-07T07:42:34;2.75;;;1.65;;
48014;SDS011;33780;51.034;7.120;2023-09-07T07:45:00;3.22;;;1.70;;
48014;SDS011;33780;51.034;7.120;2023-09-07T07:47:25;2.92;;;1.83;;
48014;SDS011;33780;51.034;7.120;2023-09-07T07:49:51;3.00;;;1.67;;
48014;SDS011;33780;51.034;7.120;2023-09-07T07:52:16;3.20;;;1.88;;
48014;SDS011;33780;51.034;7.120;2023-09-07T07:54:42;2.60;;;1.48;;
48014;SDS011;33780;51.034;7.120;2023-09-07T07:57:07;5.85;;;1.70;;
48014;SDS011;33780;51.034;7.120;2023-09-07T07:59:33;5.70;;;1.80;;
48014;SDS011;33780;51.034;7.120;2023-09-07T08:01:58;3.20;;;1.70;;
48014;SDS011;33780;51.034;7.120;2023-09-07T08:04:24;3.00;;;1.80;;
48014;SDS011;33780;51.034;7.120;2023-09-07T08:06:49;3.10;;;1.95;;
48014;SDS011;33780;51.034;7.120;2023-09-07T08:09:14;4.30;;;2.00;;
48014;SDS011;33780;51.034;7.120;2023-09-07T08:11:40;3.63;;;2.20;;
48014;SDS011;33780;51.034;7.120;2023-09-07T08:14:05;3.08;;;1.75;;
48014;SDS011;33780;51.034;7.120;2023-09-07T08:16:31;2.90;;;1.80;;
48014;SDS011;33780;51.034;7.120;2023-09-07T08:18:56;2.97;;;1.77;;
48014;SDS011;33780;51.034;7.120;2023-09-07T08:21:21;4.00;;;2.08;;
48014;SDS011;33780;51.034;7.120;2023-09-07T08:23:46;2.97;;;1.77;;
48014;SDS011;33780;51.034;7.120;2023-09-07T08:26:12;4.72;;;2.20;;
48014;SDS011;33780;51.034;7.120;2023-09-07T08:28:39;3.38;;;2.00;;
48014;SDS011;33780;51.034;7.120;2023-09-07T08:31:04;7.72;;;1.85;;
48014;SDS011;33780;51.034;7.120;2023-09-07T08:33:30;5.70;;;1.75;;
48014;SDS011;33780;51.034;7.120;2023-09-07T08:36:04;3.10;;;1.80;;
48014;SDS011;33780;51.034;7.120;2023-09-07T08:38:30;4.35;;;2.08;;
48014;SDS011;33780;51.034;7.120;2023-09-07T08:40:56;3.60;;;1.80;;
48014;SDS011;33780;51.034;7.120;2023-09-07T08:43:26;3.58;;;1.92;;
48014;SDS011;33780;51.034;7.120;2023-09-07T08:48:50;3.38;;;1.80;;
48014;SDS011;33780;51.034;7.120;2023-09-07T08:51:16;3.20;;;1.73;;
48014;SDS011;33780;51.034;7.120;2023-09-07T08:53:43;4.00;;;2.03;;
48014;SDS011;33780;51.034;7.120;2023-09-07T08:56:11;3.53;;;1.98;;
48014;SDS011;33780;51.034;7.120;2023-09-07T08:58:37;3.78;;;1.77;;
48014;SDS011;33780;51.034;7.120;2023-09-07T09:01:02;5.15;;;1.70;;
48014;SDS011;33780;51.034;7.120;2023-09-07T09:03:27;2.72;;;1.70;;
48014;SDS011;33780;51.034;7.120;2023-09-07T09:05:54;4.82;;;1.80;;
48014;SDS011;33780;51.034;7.120;2023-09-07T09:08:21;2.88;;;1.85;;
48014;SDS011;33780;51.034;7.120;2023-09-07T09:10:49;2.83;;;1.70;;
48014;SDS011;33780;51.034;7.120;2023-09-07T09:13:32;3.83;;;2.10;;
48014;SDS011;33780;51.034;7.120;2023-09-07T09:15:59;3.30;;;1.98;;
48014;SDS011;33780;51.034;7.120;2023-09-07T09:18:26;3.28;;;2.00;;
48014;SDS011;33780;51.034;7.120;2023-09-07T09:20:52;3.03;;;1.70;;
48014;SDS011;33780;51.034;7.120;2023-09-07T09:23:17;3.40;;;1.90;;
48014;SDS011;33780;51.034;7.120;2023-09-07T09:25:43;3.25;;;1.80;;
48014;SDS011;33780;51.034;7.120;2023-09-07T09:28:09;4.18;;;1.67;;
48014;SDS011;33780;51.034;7.120;2023-09-07T09:30:35;2.80;;;1.77;;
48014;SDS011;33780;51.034;7.120;2023-09-07T09:33:01;3.33;;;1.88;;
48014;SDS011;33780;51.034;7.120;2023-09-07T09:35:28;3.72;;;2.15;;
48014;SDS011;33780;51.034;7.120;2023-09-07T09:37:54;3.00;;;1.88;;
48014;SDS011;33780;51.034;7.120;2023-09-07T09:40:20;3.80;;;1.90;;
48014;SDS011;33780;51.034;7.120;2023-09-07T09:42:46;3.38;;;1.70;;
48014;SDS011;33780;51.034;7.120;2023-09-07T09:45:11;3.08;;;1.85;;
48014;SDS011;33780;51.034;7.120;2023-09-07T09:47:38;3.58;;;2.05;;
48014;SDS011;33780;51.034;7.120;2023-09-07T09:50:04;3.17;;;1.85;;
48014;SDS011;33780;51.034;7.120;2023-09-07T09:52:33;3.13;;;2.08;;
48014;SDS011;33780;51.034;7.120;2023-09-07T09:55:00;3.03;;;1.90;;
48014;SDS011;33780;51.034;7.120;2023-09-07T09:57:25;3.75;;;2.00;;
48014;SDS011;33780;51.034;7.120;2023-09-07T09:59:53;3.45;;;1.90;;
48014;SDS011;33780;51.034;7.120;2023-09-07T10:02:18;4.72;;;1.48;;
48014;SDS011;33780;51.034;7.120;2023-09-07T10:04:44;4.03;;;1.70;;
48014;SDS011;33780;51.034;7.120;2023-09-07T10:07:10;3.17;;;1.90;;
48014;SDS011;33780;51.034;7.120;2023-09-07T10:09:35;3.28;;;2.00;;
48014;SDS011;33780;51.034;7.120;2023-09-07T10:12:03;3.65;;;1.90;;
48014;SDS011;33780;51.034;7.120;2023-09-07T10:14:39;3.55;;;1.60;;
48014;SDS011;33780;51.034;7.120;2023-09-07T10:17:10;3.42;;;1.90;;
48014;SDS011;33780;51.034;7.120;2023-09-07T10:19:46;3.08;;;1.63;;
48014;SDS011;33780;51.034;7.120;2023-09-07T10:22:20;3.05;;;1.75;;
48014;SDS011;33780;51.034;7.120;2023-09-07T10:24:56;5.68;;;1.90;;
48014;SDS011;33780;51.034;7.120;2023-09-07T10:27:22;4.95;;;1.80;;
48014;SDS011;33780;51.034;7.120;2023-09-07T10:29:51;2.42;;;1.60;;
48014;SDS011;33780;51.034;7.120;2023-09-07T10:32:20;4.35;;;1.65;;
48014;SDS011;33780;51.034;7.120;2023-09-07T10:34:45;2.78;;;1.70;;
48014;SDS011;33780;51.034;7.120;2023-09-07T10:37:11;3.80;;;2.03;;
48014;SDS011;33780;51.034;7.120;2023-09-07T10:39:38;3.15;;;1.83;;
48014;SDS011;33780;51.034;7.120;2023-09-07T10:42:04;3.15;;;1.80;;
48014;SDS011;33780;51.034;7.120;2023-09-07T10:44:29;2.95;;;1.80;;
48014;SDS011;33780;51.034;7.120;2023-09-07T10:46:56;2.95;;;1.73;;
48014;SDS011;33780;51.034;7.120;2023-09-07T10:49:21;3.10;;;1.98;;
48014;SDS011;33780;51.034;7.120;2023-09-07T10:51:47;2.47;;;1.60;;
48014;SDS011;33780;51.034;7.120;2023-09-07T10:54:23;3.22;;;2.10;;
48014;SDS011;33780;51.034;7.120;2023-09-07T10:56:49;2.72;;;1.60;;
48014;SDS011;33780;51.034;7.120;2023-09-07T10:59:15;3.92;;;1.98;;
48014;SDS011;33780;51.034;7.120;2023-09-07T11:01:45;3.10;;;2.00;;
48014;SDS011;33780;51.034;7.120;2023-09-07T11:04:10;4.43;;;1.88;;
48014;SDS011;33780;51.034;7.120;2023-09-07T11:06:36;3.22;;;1.92;;
48014;SDS011;33780;51.034;7.120;2023-09-07T11:09:03;3.00;;;1.60;;
48014;SDS011;33780;51.034;7.120;2023-09-07T11:11:31;3.63;;;1.80;;
48014;SDS011;33780;51.034;7.120;2023-09-07T11:13:58;3.35;;;1.90;;
48014;SDS011;33780;51.034;7.120;2023-09-07T11:16:24;5.05;;;1.80;;
48014;SDS011;33780;51.034;7.120;2023-09-07T11:18:50;4.03;;;1.95;;
48014;SDS011;33780;51.034;7.120;2023-09-07T11:21:16;2.72;;;1.55;;
48014;SDS011;33780;51.034;7.120;2023-09-07T11:23:41;2.80;;;1.80;;
48014;SDS011;33780;51.034;7.120;2023-09-07T11:26:08;2.78;;;1.80;;
48014;SDS011;33780;51.034;7.120;2023-09-07T11:28:34;3.08;;;1.73;;
48014;SDS011;33780;51.034;7.120;2023-09-07T11:31:02;3.13;;;1.90;;
48014;SDS011;33780;51.034;7.120;2023-09-07T11:33:32;4.43;;;1.70;;
48014;SDS011;33780;51.034;7.120;2023-09-07T11:35:58;2.88;;;1.85;;
48014;SDS011;33780;51.034;7.120;2023-09-07T11:38:27;3.10;;;1.70;;
48014;SDS011;33780;51.034;7.120;2023-09-07T11:40:55;3.63;;;1.58;;
48014;SDS011;33780;51.034;7.120;2023-09-07T11:43:21;2.80;;;1.67;;
48014;SDS011;33780;51.034;7.120;2023-09-07T11:45:47;4.72;;;2.08;;
48014;SDS011;33780;51.034;7.120;2023-09-07T11:48:13;3.20;;;1.80;;
48014;SDS011;33780;51.034;7.120;2023-09-07T11:50:38;2.78;;;1.88;;
48014;SDS011;33780;51.034;7.120;2023-09-07T11:53:05;4.10;;;2.08;;
48014;SDS011;33780;51.034;7.120;2023-09-07T11:55:31;3.13;;;1.88;;
48014;SDS011;33780;51.034;7.120;2023-09-07T11:57:57;3.03;;;1.80;;
48014;SDS011;33780;51.034;7.120;2023-09-07T12:00:22;3.45;;;2.20;;
48014;SDS011;33780;51.034;7.120;2023-09-07T12:02:48;3.50;;;2.03;;
48014;SDS011;33780;51.034;7.120;2023-09-07T12:05:14;4.15;;;1.73;;
48014;SDS011;33780;51.034;7.120;2023-09-07T12:07:40;3.20;;;2.15;;
48014;SDS011;33780;51.034;7.120;2023-09-07T12:10:08;3.63;;;1.90;;
48014;SDS011;33780;51.034;7.120;2023-09-07T12:12:38;3.08;;;1.60;;
48014;SDS011;33780;51.034;7.120;2023-09-07T12:15:08;3.55;;;1.95;;
48014;SDS011;33780;51.034;7.120;2023-09-07T12:17:36;2.85;;;1.90;;
48014;SDS011;33780;51.034;7.120;2023-09-07T12:20:01;2.72;;;1.80;;
48014;SDS011;33780;51.034;7.120;2023-09-07T12:22:27;2.67;;;1.70;;
48014;SDS011;33780;51.034;7.120;2023-09-07T12:24:53;3.13;;;1.70;;
48014;SDS011;33780;51.034;7.120;2023-09-07T12:27:18;3.45;;;2.00;;
48014;SDS011;33780;51.034;7.120;2023-09-07T12:29:44;3.50;;;1.92;;
48014;SDS011;33780;51.034;7.120;2023-09-07T12:32:09;4.25;;;1.90;;
48014;SDS011;33780;51.034;7.120;2023-09-07T12:34:34;5.82;;;1.77;;
48014;SDS011;33780;51.034;7.120;2023-09-07T12:37:01;2.97;;;1.67;;
48014;SDS011;33780;51.034;7.120;2023-09-07T12:39:26;3.38;;;1.60;;
48014;SDS011;33780;51.034;7.120;2023-09-07T12:41:51;3.05;;;1.80;;
48014;SDS011;33780;51.034;7.120;2023-09-07T12:44:17;2.88;;;1.60;;
48014;SDS011;33780;51.034;7.120;2023-09-07T12:46:43;4.53;;;1.88;;
48014;SDS011;33780;51.034;7.120;2023-09-07T12:49:09;3.83;;;1.90;;
48014;SDS011;33780;51.034;7.120;2023-09-07T12:51:34;3.28;;;1.88;;
48014;SDS011;33780;51.034;7.120;2023-09-07T12:54:00;2.80;;;1.70;;
48014;SDS011;33780;51.034;7.120;2023-09-07T12:56:25;3.25;;;1.73;;
48014;SDS011;33780;51.034;7.120;2023-09-07T12:58:50;3.13;;;1.67;;
48014;SDS011;33780;51.034;7.120;2023-09-07T13:01:17;2.78;;;2.00;;
48014;SDS011;33780;51.034;7.120;2023-09-07T13:06:11;2.90;;;1.63;;
48014;SDS011;33780;51.034;7.120;2023-09-07T13:08:36;3.58;;;1.90;;
48014;SDS011;33780;51.034;7.120;2023-09-07T13:11:01;3.20;;;1.80;;
48014;SDS011;33780;51.034;7.120;2023-09-07T13:13:26;3.28;;;1.95;;
48014;SDS011;33780;51.034;7.120;2023-09-07T13:15:56;2.88;;;1.80;;
48014;SDS011;33780;51.034;7.120;2023-09-07T13:18:22;3.55;;;1.92;;
48014;SDS011;33780;51.034;7.120;2023-09-07T13:20:47;3.05;;;1.75;;
48014;SDS011;33780;51.034;7.120;2023-09-07T13:23:15;3.30;;;1.85;;
48014;SDS011;33780;51.034;7.120;2023-09-07T13:25:40;4.25;;;2.00;;
48014;SDS011;33780;51.034;7.120;2023-09-07T13:28:06;3.08;;;1.48;;
48014;SDS011;33780;51.034;7.120;2023-09-07T13:30:31;2.83;;;1.77;;
48014;SDS011;33780;51.034;7.120;2023-09-07T13:32:56;3.40;;;1.80;;
48014;SDS011;33780;51.034;7.120;2023-09-07T13:35:21;3.03;;;1.63;;
48014;SDS011;33780;51.034;7.120;2023-09-07T13:37:47;3.33;;;1.70;;
48014;SDS011;33780;51.034;7.120;2023-09-07T13:40:12;4.82;;;1.85;;
48014;SDS011;33780;51.034;7.120;2023-09-07T13:42:39;3.28;;;1.73;;
48014;SDS011;33780;51.034;7.120;2023-09-07T13:45:05;3.17;;;1.90;;
48014;SDS011;33780;51.034;7.120;2023-09-07T13:47:31;3.28;;;1.70;;
48014;SDS011;33780;51.034;7.120;2023-09-07T13:49:56;3.20;;;1.85;;
48014;SDS011;33780;51.034;7.120;2023-09-07T13:52:22;5.00;;;2.17;;
48014;SDS011;33780;51.034;7.120;2023-09-07T13:54:47;5.97;;;2.20;;
48014;SDS011;33780;51.034;7.120;2023-09-07T13:57:12;3.58;;;1.70;;
48014;SDS011;33780;51.034;7.120;2023-09-07T13:59:38;4.00;;;1.52;;
48014;SDS011;33780;51.034;7.120;2023-09-07T14:02:03;2.83;;;1.52;;
48014;SDS011;33780;51.034;7.120;2023-09-07T14:04:28;4.45;;;1.75;;
48014;SDS011;33780;51.034;7.120;2023-09-07T14:06:55;3.80;;;1.65;;
48014;SDS011;33780;51.034;7.120;2023-09-07T14:09:21;2.65;;;1.75;;
48014;SDS011;33780;51.034;7.120;2023-09-07T14:11:48;4.15;;;1.80;;
48014;SDS011;33780;51.034;7.120;2023-09-07T14:14:13;3.88;;;1.90;;
48014;SDS011;33780;51.034;7.120;2023-09-07T14:16:39;3.33;;;1.85;;
48014;SDS011;33780;51.034;7.120;2023-09-07T14:19:04;3.40;;;1.73;;
48014;SDS011;33780;51.034;7.120;2023-09-07T14:21:30;2.95;;;1.58;;
48014;SDS011;33780;51.034;7.120;2023-09-07T14:23:55;4.18;;;1.70;;
48014;SDS011;33780;51.034;7.120;2023-09-07T14:26:20;3.42;;;1.50;;
48014;SDS011;33780;51.034;7.120;2023-09-07T14:28:45;3.28;;;1.73;;
48014;SDS011;33780;51.034;7.120;2023-09-07T14:31:11;3.08;;;1.60;;
48014;SDS011;33780;51.034;7.120;2023-09-07T14:33:37;3.05;;;1.80;;
48014;SDS011;33780;51.034;7.120;2023-09-07T14:36:03;3.13;;;1.90;;
48014;SDS011;33780;51.034;7.120;2023-09-07T14:38:30;3.13;;;1.50;;
48014;SDS011;33780;51.034;7.120;2023-09-07T14:40:56;2.72;;;1.65;;
48014;SDS011;33780;51.034;7.120;2023-09-07T14:43:24;3.00;;;1.65;;
48014;SDS011;33780;51.034;7.120;2023-09-07T14:45:49;3.10;;;1.58;;
48014;SDS011;33780;51.034;7.120;2023-09-07T14:48:14;3.15;;;1.88;;